sensor_id;sensor_type;location;lat;lon;timestamp;P1;durP1;ratioP1;P2;durP2;ratioP2
3257;SDS011;1641;51.306;12.384;2023-03-30T00:00:08;5.05;;;3.22;;
3257;SDS011;1641;51.306;12.384;2023-03-30T00:02:44;6.78;;;3.60;;
3257;SDS011;1641;51.306;12.384;2023-03-30T00:05:10;3.75;;;2.80;;
3257;SDS011;1641;51.306;12.384;2023-03-30T00:07:37;8.00;;;3.38;;
3257;SDS011;1641;51.306;12.384;2023-03-30T00:10:06;3.67;;;3.10;;
3257;SDS011;1641;51.306;12.384;2023-03-30T00:12:33;10.65;;;4.75;;
3257;SDS011;1641;51.306;12.384;2023-03-30T00:15:01;5.35;;;3.25;;
3257;SDS011;1641;51.306;12.384;2023-03-30T00:17:26;6.80;;;3.63;;
3257;SDS011;1641;51.306;12.384;2023-03-30T00:19:58;5.57;;;3.17;;
3257;SDS011;1641;51.306;12.384;2023-03-30T00:22:30;3.83;;;2.70;;
3257;SDS011;1641;51.306;12.384;2023-03-30T00:24:55;7.18;;;3.50;;
3257;SDS011;1641;51.306;12.384;2023-03-30T00:27:20;4.50;;;2.83;;
3257;SDS011;1641;51.306;12.384;2023-03-30T00:29:46;5.50;;;2.90;;
3257;SDS011;1641;51.306;12.384;2023-03-30T00:32:11;6.45;;;3.45;;
3257;SDS011;1641;51.306;12.384;2023-03-30T00:34:37;6.07;;;3.20;;
3257;SDS011;1641;51.306;12.384;2023-03-30T00:37:02;4.70;;;2.97;;
3257;SDS011;1641;51.306;12.384;2023-03-30T00:39:28;6.35;;;3.70;;
3257;SDS011;1641;51.306;12.384;2023-03-30T00:41:53;6.63;;;3.60;;
3257;SDS011;1641;51.306;12.384;2023-03-30T00:47:27;4.53;;;2.70;;
3257;SDS011;1641;51.306;12.384;2023-03-30T00:49:55;4.80;;;3.38;;
3257;SDS011;1641;51.306;12.384;2023-03-30T00:52:30;5.20;;;3.33;;
3257;SDS011;1641;51.306;12.384;2023-03-30T00:54:58;5.20;;;3.30;;
3257;SDS011;1641;51.306;12.384;2023-03-30T00:57:23;5.78;;;2.80;;
3257;SDS011;1641;51.306;12.384;2023-03-30T00:59:50;3.03;;;2.70;;
3257;SDS011;1641;51.306;12.384;2023-03-30T01:02:17;8.35;;;3.15;;
3257;SDS011;1641;51.306;12.384;2023-03-30T01:04:45;3.05;;;2.63;;
3257;SDS011;1641;51.306;12.384;2023-03-30T01:07:15;4.93;;;3.15;;
3257;SDS011;1641;51.306;12.384;2023-03-30T01:09:41;8.65;;;3.10;;
3257;SDS011;1641;51.306;12.384;2023-03-30T01:12:07;4.10;;;2.70;;
3257;SDS011;1641;51.306;12.384;2023-03-30T01:14:33;4.03;;;3.10;;
3257;SDS011;1641;51.306;12.384;2023-03-30T01:17:03;4.30;;;3.30;;
3257;SDS011;1641;51.306;12.384;2023-03-30T01:19:54;6.30;;;2.78;;
3257;SDS011;1641;51.306;12.384;2023-03-30T01:22:47;3.17;;;2.88;;
3257;SDS011;1641;51.306;12.384;2023-03-30T01:26:08;4.20;;;2.40;;
3257;SDS011;1641;51.306;12.384;2023-03-30T01:28:51;5.25;;;3.10;;
3257;SDS011;1641;51.306;12.384;2023-03-30T01:34:21;4.43;;;2.95;;
3257;SDS011;1641;51.306;12.384;2023-03-30T01:39:58;5.72;;;2.80;;
3257;SDS011;1641;51.306;12.384;2023-03-30T01:48:15;6.47;;;3.22;;
3257;SDS011;1641;51.306;12.384;2023-03-30T01:50:53;5.93;;;3.00;;
3257;SDS011;1641;51.306;12.384;2023-03-30T01:53:27;5.70;;;3.80;;
3257;SDS011;1641;51.306;12.384;2023-03-30T01:56:18;7.70;;;3.38;;
3257;SDS011;1641;51.306;12.384;2023-03-30T01:59:00;7.40;;;3.30;;
3257;SDS011;1641;51.306;12.384;2023-03-30T02:01:30;5.78;;;3.03;;
3257;SDS011;1641;51.306;12.384;2023-03-30T02:04:00;3.75;;;2.83;;
3257;SDS011;1641;51.306;12.384;2023-03-30T02:06:30;7.63;;;3.42;;
3257;SDS011;1641;51.306;12.384;2023-03-30T02:09:03;4.72;;;3.08;;
3257;SDS011;1641;51.306;12.384;2023-03-30T02:11:29;5.22;;;2.83;;
3257;SDS011;1641;51.306;12.384;2023-03-30T02:13:55;6.97;;;3.15;;
3257;SDS011;1641;51.306;12.384;2023-03-30T02:16:43;4.03;;;2.97;;
3257;SDS011;1641;51.306;12.384;2023-03-30T02:19:11;9.40;;;3.83;;
3257;SDS011;1641;51.306;12.384;2023-03-30T02:21:37;6.53;;;3.08;;
3257;SDS011;1641;51.306;12.384;2023-03-30T02:24:03;4.32;;;2.88;;
3257;SDS011;1641;51.306;12.384;2023-03-30T02:26:32;4.63;;;3.05;;
3257;SDS011;1641;51.306;12.384;2023-03-30T02:28:59;6.38;;;3.30;;
3257;SDS011;1641;51.306;12.384;2023-03-30T02:31:24;3.60;;;2.67;;
3257;SDS011;1641;51.306;12.384;2023-03-30T02:33:54;6.00;;;2.75;;
3257;SDS011;1641;51.306;12.384;2023-03-30T02:48:55;5.10;;;2.88;;
3257;SDS011;1641;51.306;12.384;2023-03-30T02:51:47;12.23;;;4.38;;
3257;SDS011;1641;51.306;12.384;2023-03-30T02:54:24;6.47;;;3.33;;
3257;SDS011;1641;51.306;12.384;2023-03-30T02:59:49;5.80;;;2.83;;
3257;SDS011;1641;51.306;12.384;2023-03-30T03:02:20;4.80;;;3.03;;
3257;SDS011;1641;51.306;12.384;2023-03-30T03:04:50;6.68;;;2.97;;
3257;SDS011;1641;51.306;12.384;2023-03-30T03:07:18;3.97;;;2.75;;
3257;SDS011;1641;51.306;12.384;2023-03-30T03:09:44;6.25;;;3.00;;
3257;SDS011;1641;51.306;12.384;2023-03-30T03:12:10;7.75;;;2.97;;
3257;SDS011;1641;51.306;12.384;2023-03-30T03:14:36;6.60;;;3.40;;
3257;SDS011;1641;51.306;12.384;2023-03-30T03:17:02;5.03;;;2.83;;
3257;SDS011;1641;51.306;12.384;2023-03-30T03:19:29;3.75;;;2.55;;
3257;SDS011;1641;51.306;12.384;2023-03-30T03:21:54;3.63;;;2.47;;
3257;SDS011;1641;51.306;12.384;2023-03-30T03:24:19;4.10;;;2.50;;
3257;SDS011;1641;51.306;12.384;2023-03-30T03:26:45;5.55;;;2.58;;
3257;SDS011;1641;51.306;12.384;2023-03-30T03:29:11;6.32;;;2.92;;
3257;SDS011;1641;51.306;12.384;2023-03-30T03:31:36;6.93;;;3.17;;
3257;SDS011;1641;51.306;12.384;2023-03-30T03:34:02;4.90;;;2.78;;
3257;SDS011;1641;51.306;12.384;2023-03-30T03:36:27;5.65;;;2.47;;
3257;SDS011;1641;51.306;12.384;2023-03-30T03:38:52;5.93;;;2.63;;
3257;SDS011;1641;51.306;12.384;2023-03-30T03:41:18;6.70;;;3.25;;
3257;SDS011;1641;51.306;12.384;2023-03-30T03:43:43;4.43;;;2.92;;
3257;SDS011;1641;51.306;12.384;2023-03-30T03:46:09;7.45;;;2.58;;
3257;SDS011;1641;51.306;12.384;2023-03-30T03:48:35;4.13;;;2.38;;
3257;SDS011;1641;51.306;12.384;2023-03-30T03:51:00;4.28;;;1.90;;
3257;SDS011;1641;51.306;12.384;2023-03-30T03:53:26;5.28;;;2.72;;
3257;SDS011;1641;51.306;12.384;2023-03-30T03:55:52;4.90;;;2.60;;
3257;SDS011;1641;51.306;12.384;2023-03-30T03:58:18;4.72;;;2.65;;
3257;SDS011;1641;51.306;12.384;2023-03-30T04:00:44;5.07;;;2.40;;
3257;SDS011;1641;51.306;12.384;2023-03-30T04:03:10;4.63;;;2.53;;
3257;SDS011;1641;51.306;12.384;2023-03-30T04:05:36;5.15;;;2.83;;
3257;SDS011;1641;51.306;12.384;2023-03-30T04:08:02;2.83;;;2.20;;
3257;SDS011;1641;51.306;12.384;2023-03-30T04:10:27;4.57;;;2.42;;
3257;SDS011;1641;51.306;12.384;2023-03-30T04:12:56;4.95;;;2.72;;
3257;SDS011;1641;51.306;12.384;2023-03-30T04:15:22;3.20;;;2.35;;
3257;SDS011;1641;51.306;12.384;2023-03-30T04:17:48;6.22;;;2.70;;
3257;SDS011;1641;51.306;12.384;2023-03-30T04:20:23;5.90;;;2.45;;
3257;SDS011;1641;51.306;12.384;2023-03-30T04:22:55;6.15;;;3.00;;
3257;SDS011;1641;51.306;12.384;2023-03-30T04:25:21;4.80;;;2.53;;
3257;SDS011;1641;51.306;12.384;2023-03-30T04:27:49;3.17;;;2.28;;
3257;SDS011;1641;51.306;12.384;2023-03-30T04:30:18;2.97;;;2.10;;
3257;SDS011;1641;51.306;12.384;2023-03-30T04:32:46;6.93;;;2.30;;
3257;SDS011;1641;51.306;12.384;2023-03-30T04:35:18;4.63;;;2.03;;
3257;SDS011;1641;51.306;12.384;2023-03-30T04:37:44;7.03;;;3.05;;
3257;SDS011;1641;51.306;12.384;2023-03-30T04:40:10;4.50;;;3.63;;
3257;SDS011;1641;51.306;12.384;2023-03-30T04:42:37;6.95;;;3.42;;
3257;SDS011;1641;51.306;12.384;2023-03-30T04:45:06;8.18;;;3.33;;
3257;SDS011;1641;51.306;12.384;2023-03-30T04:47:32;9.85;;;4.68;;
3257;SDS011;1641;51.306;12.384;2023-03-30T04:50:01;15.10;;;10.63;;
3257;SDS011;1641;51.306;12.384;2023-03-30T04:52:26;8.35;;;5.30;;
3257;SDS011;1641;51.306;12.384;2023-03-30T04:54:52;11.68;;;7.90;;
3257;SDS011;1641;51.306;12.384;2023-03-30T04:57:17;14.75;;;10.65;;
3257;SDS011;1641;51.306;12.384;2023-03-30T04:59:43;7.18;;;6.00;;
3257;SDS011;1641;51.306;12.384;2023-03-30T05:02:09;4.28;;;3.58;;
3257;SDS011;1641;51.306;12.384;2023-03-30T05:04:35;12.10;;;3.95;;
3257;SDS011;1641;51.306;12.384;2023-03-30T05:07:01;3.58;;;2.50;;
3257;SDS011;1641;51.306;12.384;2023-03-30T05:09:33;4.22;;;2.70;;
3257;SDS011;1641;51.306;12.384;2023-03-30T05:12:04;10.30;;;2.72;;
3257;SDS011;1641;51.306;12.384;2023-03-30T05:14:30;4.20;;;2.47;;
3257;SDS011;1641;51.306;12.384;2023-03-30T05:16:55;8.65;;;2.97;;
3257;SDS011;1641;51.306;12.384;2023-03-30T05:19:22;4.25;;;2.10;;
3257;SDS011;1641;51.306;12.384;2023-03-30T05:21:47;10.35;;;4.05;;
3257;SDS011;1641;51.306;12.384;2023-03-30T05:24:19;4.63;;;2.80;;
3257;SDS011;1641;51.306;12.384;2023-03-30T05:26:44;3.83;;;2.40;;
3257;SDS011;1641;51.306;12.384;2023-03-30T05:29:12;11.07;;;2.78;;
3257;SDS011;1641;51.306;12.384;2023-03-30T05:31:38;7.68;;;2.30;;
3257;SDS011;1641;51.306;12.384;2023-03-30T05:34:03;5.45;;;2.35;;
3257;SDS011;1641;51.306;12.384;2023-03-30T05:36:29;8.85;;;2.80;;
3257;SDS011;1641;51.306;12.384;2023-03-30T05:38:54;4.50;;;2.88;;
3257;SDS011;1641;51.306;12.384;2023-03-30T05:41:20;16.52;;;3.58;;
3257;SDS011;1641;51.306;12.384;2023-03-30T05:43:46;7.65;;;3.15;;
3257;SDS011;1641;51.306;12.384;2023-03-30T05:46:12;8.75;;;4.03;;
3257;SDS011;1641;51.306;12.384;2023-03-30T05:48:38;9.32;;;3.10;;
3257;SDS011;1641;51.306;12.384;2023-03-30T05:51:03;7.97;;;4.15;;
3257;SDS011;1641;51.306;12.384;2023-03-30T05:53:28;10.65;;;4.07;;
3257;SDS011;1641;51.306;12.384;2023-03-30T05:55:54;10.55;;;3.58;;
3257;SDS011;1641;51.306;12.384;2023-03-30T05:58:19;8.25;;;3.50;;
3257;SDS011;1641;51.306;12.384;2023-03-30T06:00:45;5.55;;;2.67;;
3257;SDS011;1641;51.306;12.384;2023-03-30T06:03:12;8.50;;;2.88;;
3257;SDS011;1641;51.306;12.384;2023-03-30T06:05:37;8.52;;;2.67;;
3257;SDS011;1641;51.306;12.384;2023-03-30T06:08:06;6.40;;;3.08;;
3257;SDS011;1641;51.306;12.384;2023-03-30T06:10:35;12.63;;;2.75;;
3257;SDS011;1641;51.306;12.384;2023-03-30T06:13:01;8.40;;;3.15;;
3257;SDS011;1641;51.306;12.384;2023-03-30T06:15:26;8.98;;;2.83;;
3257;SDS011;1641;51.306;12.384;2023-03-30T06:17:52;8.43;;;2.40;;
3257;SDS011;1641;51.306;12.384;2023-03-30T06:20:18;7.70;;;2.65;;
3257;SDS011;1641;51.306;12.384;2023-03-30T06:22:45;10.57;;;2.55;;
3257;SDS011;1641;51.306;12.384;2023-03-30T06:25:13;5.35;;;2.17;;
3257;SDS011;1641;51.306;12.384;2023-03-30T06:27:39;6.18;;;2.97;;
3257;SDS011;1641;51.306;12.384;2023-03-30T06:30:05;14.40;;;3.13;;
3257;SDS011;1641;51.306;12.384;2023-03-30T06:32:33;6.35;;;3.05;;
3257;SDS011;1641;51.306;12.384;2023-03-30T06:35:07;20.63;;;4.30;;
3257;SDS011;1641;51.306;12.384;2023-03-30T06:37:34;8.13;;;3.10;;
3257;SDS011;1641;51.306;12.384;2023-03-30T06:40:00;5.28;;;3.20;;
3257;SDS011;1641;51.306;12.384;2023-03-30T06:42:31;8.43;;;3.38;;
3257;SDS011;1641;51.306;12.384;2023-03-30T06:44:57;8.25;;;3.65;;
3257;SDS011;1641;51.306;12.384;2023-03-30T06:47:22;4.90;;;2.80;;
3257;SDS011;1641;51.306;12.384;2023-03-30T06:49:47;7.00;;;2.78;;
3257;SDS011;1641;51.306;12.384;2023-03-30T06:52:13;12.10;;;3.58;;
3257;SDS011;1641;51.306;12.384;2023-03-30T06:54:39;7.07;;;3.40;;
3257;SDS011;1641;51.306;12.384;2023-03-30T06:57:04;6.72;;;3.55;;
3257;SDS011;1641;51.306;12.384;2023-03-30T06:59:29;6.18;;;2.78;;
3257;SDS011;1641;51.306;12.384;2023-03-30T07:01:56;5.70;;;2.15;;
3257;SDS011;1641;51.306;12.384;2023-03-30T07:04:22;3.92;;;2.00;;
3257;SDS011;1641;51.306;12.384;2023-03-30T07:06:47;7.25;;;2.83;;
3257;SDS011;1641;51.306;12.384;2023-03-30T07:09:13;12.93;;;2.55;;
3257;SDS011;1641;51.306;12.384;2023-03-30T07:11:38;6.65;;;2.13;;
3257;SDS011;1641;51.306;12.384;2023-03-30T07:14:03;7.38;;;1.85;;
3257;SDS011;1641;51.306;12.384;2023-03-30T07:16:29;5.00;;;1.88;;
3257;SDS011;1641;51.306;12.384;2023-03-30T07:18:55;6.05;;;2.47;;
3257;SDS011;1641;51.306;12.384;2023-03-30T07:21:20;8.45;;;2.92;;
3257;SDS011;1641;51.306;12.384;2023-03-30T07:23:45;4.47;;;2.40;;
3257;SDS011;1641;51.306;12.384;2023-03-30T07:26:10;6.88;;;1.92;;
3257;SDS011;1641;51.306;12.384;2023-03-30T07:28:36;8.77;;;1.92;;
3257;SDS011;1641;51.306;12.384;2023-03-30T07:31:06;5.05;;;2.50;;
3257;SDS011;1641;51.306;12.384;2023-03-30T07:33:32;9.57;;;2.70;;
3257;SDS011;1641;51.306;12.384;2023-03-30T07:35:58;9.30;;;2.88;;
3257;SDS011;1641;51.306;12.384;2023-03-30T07:38:23;4.97;;;2.38;;
3257;SDS011;1641;51.306;12.384;2023-03-30T07:40:49;6.72;;;2.40;;
3257;SDS011;1641;51.306;12.384;2023-03-30T07:43:14;6.18;;;2.70;;
3257;SDS011;1641;51.306;12.384;2023-03-30T07:45:40;8.50;;;3.05;;
3257;SDS011;1641;51.306;12.384;2023-03-30T07:48:05;10.40;;;3.55;;
3257;SDS011;1641;51.306;12.384;2023-03-30T07:50:30;6.28;;;2.47;;
3257;SDS011;1641;51.306;12.384;2023-03-30T07:52:56;4.20;;;2.30;;
3257;SDS011;1641;51.306;12.384;2023-03-30T07:55:21;6.65;;;1.92;;
3257;SDS011;1641;51.306;12.384;2023-03-30T07:57:46;3.15;;;1.98;;
3257;SDS011;1641;51.306;12.384;2023-03-30T08:00:12;7.40;;;3.23;;
3257;SDS011;1641;51.306;12.384;2023-03-30T08:02:38;7.03;;;2.55;;
3257;SDS011;1641;51.306;12.384;2023-03-30T08:05:04;8.98;;;2.42;;
3257;SDS011;1641;51.306;12.384;2023-03-30T08:07:30;7.20;;;2.45;;
3257;SDS011;1641;51.306;12.384;2023-03-30T08:09:58;6.00;;;2.30;;
3257;SDS011;1641;51.306;12.384;2023-03-30T08:12:23;8.68;;;2.22;;
3257;SDS011;1641;51.306;12.384;2023-03-30T08:14:48;8.43;;;2.70;;
3257;SDS011;1641;51.306;12.384;2023-03-30T08:17:13;6.65;;;2.58;;
3257;SDS011;1641;51.306;12.384;2023-03-30T08:19:39;9.07;;;2.67;;
3257;SDS011;1641;51.306;12.384;2023-03-30T08:22:04;7.68;;;2.75;;
3257;SDS011;1641;51.306;12.384;2023-03-30T08:24:29;5.38;;;2.60;;
3257;SDS011;1641;51.306;12.384;2023-03-30T08:26:55;5.57;;;2.30;;
3257;SDS011;1641;51.306;12.384;2023-03-30T08:29:20;6.55;;;2.20;;
3257;SDS011;1641;51.306;12.384;2023-03-30T08:31:46;5.50;;;2.00;;
3257;SDS011;1641;51.306;12.384;2023-03-30T08:34:11;9.57;;;2.30;;
3257;SDS011;1641;51.306;12.384;2023-03-30T08:36:37;6.95;;;2.35;;
3257;SDS011;1641;51.306;12.384;2023-03-30T08:39:02;7.65;;;2.22;;
3257;SDS011;1641;51.306;12.384;2023-03-30T08:44:00;5.75;;;2.60;;
3257;SDS011;1641;51.306;12.384;2023-03-30T08:46:30;8.63;;;2.35;;
3257;SDS011;1641;51.306;12.384;2023-03-30T08:48:57;8.07;;;2.75;;
3257;SDS011;1641;51.306;12.384;2023-03-30T08:51:31;4.70;;;2.33;;
3257;SDS011;1641;51.306;12.384;2023-03-30T08:53:59;12.35;;;3.63;;
3257;SDS011;1641;51.306;12.384;2023-03-30T08:59:33;14.07;;;3.50;;
3257;SDS011;1641;51.306;12.384;2023-03-30T09:02:20;3.25;;;2.50;;
3257;SDS011;1641;51.306;12.384;2023-03-30T09:08:08;7.97;;;2.35;;
3257;SDS011;1641;51.306;12.384;2023-03-30T09:10:46;8.93;;;2.75;;
3257;SDS011;1641;51.306;12.384;2023-03-30T09:13:19;7.22;;;3.05;;
3257;SDS011;1641;51.306;12.384;2023-03-30T09:18:40;11.32;;;2.47;;
3257;SDS011;1641;51.306;12.384;2023-03-30T09:21:09;11.20;;;2.85;;
3257;SDS011;1641;51.306;12.384;2023-03-30T09:23:36;10.95;;;3.17;;
3257;SDS011;1641;51.306;12.384;2023-03-30T09:26:06;12.25;;;4.07;;
3257;SDS011;1641;51.306;12.384;2023-03-30T09:28:46;22.00;;;9.93;;
3257;SDS011;1641;51.306;12.384;2023-03-30T09:31:37;4.93;;;2.20;;
3257;SDS011;1641;51.306;12.384;2023-03-30T09:34:13;6.97;;;2.63;;
3257;SDS011;1641;51.306;12.384;2023-03-30T09:39:37;10.65;;;3.92;;
3257;SDS011;1641;51.306;12.384;2023-03-30T09:45:26;10.77;;;3.20;;
3257;SDS011;1641;51.306;12.384;2023-03-30T09:47:37;14.75;;;5.95;;
3257;SDS011;1641;51.306;12.384;2023-03-30T09:50:04;15.65;;;4.95;;
3257;SDS011;1641;51.306;12.384;2023-03-30T09:52:32;9.10;;;4.03;;
3257;SDS011;1641;51.306;12.384;2023-03-30T09:55:03;12.50;;;5.28;;
3257;SDS011;1641;51.306;12.384;2023-03-30T09:57:46;7.03;;;3.47;;
3257;SDS011;1641;51.306;12.384;2023-03-30T10:00:32;5.70;;;3.58;;
3257;SDS011;1641;51.306;12.384;2023-03-30T10:05:24;12.30;;;2.80;;
3257;SDS011;1641;51.306;12.384;2023-03-30T10:07:52;6.18;;;3.03;;
3257;SDS011;1641;51.306;12.384;2023-03-30T10:12:44;7.27;;;3.20;;
3257;SDS011;1641;51.306;12.384;2023-03-30T10:15:14;8.50;;;2.60;;
3257;SDS011;1641;51.306;12.384;2023-03-30T10:17:45;9.23;;;2.78;;
3257;SDS011;1641;51.306;12.384;2023-03-30T10:20:12;6.53;;;2.38;;
3257;SDS011;1641;51.306;12.384;2023-03-30T10:22:51;8.35;;;2.58;;
3257;SDS011;1641;51.306;12.384;2023-03-30T10:25:18;6.95;;;2.25;;
3257;SDS011;1641;51.306;12.384;2023-03-30T10:27:56;10.45;;;3.65;;
3257;SDS011;1641;51.306;12.384;2023-03-30T10:30:25;10.50;;;3.22;;
3257;SDS011;1641;51.306;12.384;2023-03-30T10:32:52;5.03;;;2.53;;
3257;SDS011;1641;51.306;12.384;2023-03-30T10:35:21;7.22;;;2.05;;
3257;SDS011;1641;51.306;12.384;2023-03-30T10:37:50;6.95;;;2.15;;
3257;SDS011;1641;51.306;12.384;2023-03-30T10:40:34;5.10;;;2.83;;
3257;SDS011;1641;51.306;12.384;2023-03-30T10:43:02;5.60;;;2.30;;
3257;SDS011;1641;51.306;12.384;2023-03-30T10:45:33;4.78;;;2.38;;
3257;SDS011;1641;51.306;12.384;2023-03-30T10:51:35;5.88;;;2.05;;
3257;SDS011;1641;51.306;12.384;2023-03-30T10:53:37;5.30;;;2.97;;
3257;SDS011;1641;51.306;12.384;2023-03-30T10:56:11;5.50;;;2.20;;
3257;SDS011;1641;51.306;12.384;2023-03-30T11:04:09;4.75;;;2.13;;
3257;SDS011;1641;51.306;12.384;2023-03-30T11:06:40;5.40;;;2.55;;
3257;SDS011;1641;51.306;12.384;2023-03-30T11:09:08;11.35;;;3.28;;
3257;SDS011;1641;51.306;12.384;2023-03-30T11:11:48;7.97;;;2.80;;
3257;SDS011;1641;51.306;12.384;2023-03-30T11:14:27;6.13;;;2.55;;
3257;SDS011;1641;51.306;12.384;2023-03-30T11:17:18;10.90;;;3.85;;
3257;SDS011;1641;51.306;12.384;2023-03-30T11:19:51;5.60;;;2.08;;
3257;SDS011;1641;51.306;12.384;2023-03-30T11:22:24;5.10;;;2.63;;
3257;SDS011;1641;51.306;12.384;2023-03-30T11:24:57;6.70;;;2.20;;
3257;SDS011;1641;51.306;12.384;2023-03-30T11:27:30;4.32;;;1.70;;
3257;SDS011;1641;51.306;12.384;2023-03-30T11:33:06;10.55;;;2.58;;
3257;SDS011;1641;51.306;12.384;2023-03-30T11:38:54;5.55;;;2.10;;
3257;SDS011;1641;51.306;12.384;2023-03-30T11:41:34;4.45;;;2.33;;
3257;SDS011;1641;51.306;12.384;2023-03-30T11:44:07;8.20;;;2.67;;
3257;SDS011;1641;51.306;12.384;2023-03-30T11:54:37;4.50;;;3.08;;
3257;SDS011;1641;51.306;12.384;2023-03-30T11:57:14;6.50;;;3.08;;
3257;SDS011;1641;51.306;12.384;2023-03-30T12:08:49;7.55;;;3.05;;
3257;SDS011;1641;51.306;12.384;2023-03-30T12:11:20;5.18;;;2.83;;
3257;SDS011;1641;51.306;12.384;2023-03-30T12:13:51;9.50;;;2.88;;
3257;SDS011;1641;51.306;12.384;2023-03-30T12:16:19;3.65;;;2.20;;
3257;SDS011;1641;51.306;12.384;2023-03-30T12:19:03;8.43;;;2.60;;
3257;SDS011;1641;51.306;12.384;2023-03-30T12:21:37;11.77;;;3.55;;
3257;SDS011;1641;51.306;12.384;2023-03-30T12:24:14;9.57;;;2.70;;
3257;SDS011;1641;51.306;12.384;2023-03-30T12:26:44;9.63;;;3.63;;
3257;SDS011;1641;51.306;12.384;2023-03-30T12:29:11;11.48;;;2.75;;
3257;SDS011;1641;51.306;12.384;2023-03-30T12:31:46;7.05;;;2.42;;
3257;SDS011;1641;51.306;12.384;2023-03-30T12:34:11;5.18;;;2.92;;
3257;SDS011;1641;51.306;12.384;2023-03-30T12:36:40;7.50;;;3.00;;
3257;SDS011;1641;51.306;12.384;2023-03-30T12:42:09;5.15;;;2.25;;
3257;SDS011;1641;51.306;12.384;2023-03-30T12:44:54;5.82;;;2.72;;
3257;SDS011;1641;51.306;12.384;2023-03-30T12:50:26;6.07;;;2.88;;
3257;SDS011;1641;51.306;12.384;2023-03-30T12:53:16;8.52;;;4.22;;
3257;SDS011;1641;51.306;12.384;2023-03-30T12:56:19;8.43;;;3.13;;
3257;SDS011;1641;51.306;12.384;2023-03-30T13:04:53;3.03;;;2.40;;
3257;SDS011;1641;51.306;12.384;2023-03-30T13:07:23;5.43;;;3.08;;
3257;SDS011;1641;51.306;12.384;2023-03-30T13:09:53;4.57;;;2.25;;
3257;SDS011;1641;51.306;12.384;2023-03-30T13:14:58;5.03;;;1.95;;
3257;SDS011;1641;51.306;12.384;2023-03-30T13:17:25;3.42;;;1.92;;
3257;SDS011;1641;51.306;12.384;2023-03-30T13:22:35;6.63;;;1.80;;
3257;SDS011;1641;51.306;12.384;2023-03-30T13:27:44;3.45;;;1.40;;
3257;SDS011;1641;51.306;12.384;2023-03-30T13:30:13;3.08;;;2.13;;
3257;SDS011;1641;51.306;12.384;2023-03-30T13:46:46;5.18;;;1.17;;
3257;SDS011;1641;51.306;12.384;2023-03-30T13:52:04;3.60;;;1.88;;
3257;SDS011;1641;51.306;12.384;2023-03-30T13:54:35;8.90;;;7.05;;
3257;SDS011;1641;51.306;12.384;2023-03-30T13:57:20;6.47;;;2.13;;
3257;SDS011;1641;51.306;12.384;2023-03-30T13:59:51;6.15;;;2.05;;
3257;SDS011;1641;51.306;12.384;2023-03-30T14:04:47;10.20;;;2.33;;
3257;SDS011;1641;51.306;12.384;2023-03-30T14:07:19;7.18;;;1.45;;
3257;SDS011;1641;51.306;12.384;2023-03-30T14:12:30;2.20;;;0.82;;
3257;SDS011;1641;51.306;12.384;2023-03-30T14:18:02;14.25;;;1.27;;
3257;SDS011;1641;51.306;12.384;2023-03-30T14:25:58;3.92;;;0.98;;
3257;SDS011;1641;51.306;12.384;2023-03-30T14:28:33;0.82;;;0.70;;
3257;SDS011;1641;51.306;12.384;2023-03-30T14:31:01;4.95;;;1.15;;
3257;SDS011;1641;51.306;12.384;2023-03-30T14:33:44;3.70;;;1.38;;
3257;SDS011;1641;51.306;12.384;2023-03-30T14:36:09;11.50;;;1.42;;
3257;SDS011;1641;51.306;12.384;2023-03-30T14:38:38;3.22;;;1.40;;
3257;SDS011;1641;51.306;12.384;2023-03-30T14:41:13;5.45;;;1.17;;
3257;SDS011;1641;51.306;12.384;2023-03-30T14:43:57;4.38;;;1.10;;
3257;SDS011;1641;51.306;12.384;2023-03-30T14:46:44;4.05;;;1.50;;
3257;SDS011;1641;51.306;12.384;2023-03-30T14:49:19;2.28;;;1.38;;
3257;SDS011;1641;51.306;12.384;2023-03-30T14:51:48;7.22;;;1.60;;
3257;SDS011;1641;51.306;12.384;2023-03-30T14:54:16;3.22;;;1.23;;
3257;SDS011;1641;51.306;12.384;2023-03-30T14:56:46;2.70;;;1.30;;
3257;SDS011;1641;51.306;12.384;2023-03-30T14:59:27;1.85;;;1.40;;
3257;SDS011;1641;51.306;12.384;2023-03-30T15:01:54;5.93;;;0.90;;
3257;SDS011;1641;51.306;12.384;2023-03-30T15:04:25;4.93;;;1.30;;
3257;SDS011;1641;51.306;12.384;2023-03-30T15:09:55;3.03;;;1.58;;
3257;SDS011;1641;51.306;12.384;2023-03-30T15:12:24;3.05;;;1.10;;
3257;SDS011;1641;51.306;12.384;2023-03-30T15:14:53;3.47;;;1.42;;
3257;SDS011;1641;51.306;12.384;2023-03-30T15:17:42;3.63;;;1.40;;
3257;SDS011;1641;51.306;12.384;2023-03-30T15:20:24;3.50;;;1.58;;
3257;SDS011;1641;51.306;12.384;2023-03-30T15:22:52;2.40;;;1.53;;
3257;SDS011;1641;51.306;12.384;2023-03-30T15:25:22;2.80;;;1.55;;
3257;SDS011;1641;51.306;12.384;2023-03-30T15:27:56;5.28;;;2.75;;
3257;SDS011;1641;51.306;12.384;2023-03-30T15:30:30;3.65;;;2.17;;
3257;SDS011;1641;51.306;12.384;2023-03-30T15:32:59;6.03;;;4.35;;
3257;SDS011;1641;51.306;12.384;2023-03-30T15:35:43;5.85;;;3.20;;
3257;SDS011;1641;51.306;12.384;2023-03-30T15:38:14;9.35;;;4.00;;
3257;SDS011;1641;51.306;12.384;2023-03-30T15:40:53;5.55;;;3.47;;
3257;SDS011;1641;51.306;12.384;2023-03-30T15:43:28;3.10;;;1.40;;
3257;SDS011;1641;51.306;12.384;2023-03-30T15:45:58;2.75;;;1.20;;
3257;SDS011;1641;51.306;12.384;2023-03-30T15:51:09;4.38;;;1.60;;
3257;SDS011;1641;51.306;12.384;2023-03-30T15:53:41;1.70;;;1.58;;
3257;SDS011;1641;51.306;12.384;2023-03-30T15:56:16;1.90;;;1.20;;
3257;SDS011;1641;51.306;12.384;2023-03-30T15:58:47;3.28;;;1.70;;
3257;SDS011;1641;51.306;12.384;2023-03-30T16:01:14;1.50;;;1.17;;
3257;SDS011;1641;51.306;12.384;2023-03-30T16:03:47;4.35;;;1.67;;
3257;SDS011;1641;51.306;12.384;2023-03-30T16:06:14;3.10;;;1.88;;
3257;SDS011;1641;51.306;12.384;2023-03-30T16:08:44;1.27;;;0.90;;
3257;SDS011;1641;51.306;12.384;2023-03-30T16:11:10;1.85;;;1.20;;
3257;SDS011;1641;51.306;12.384;2023-03-30T16:13:41;2.85;;;1.80;;
3257;SDS011;1641;51.306;12.384;2023-03-30T16:16:12;2.00;;;1.15;;
3257;SDS011;1641;51.306;12.384;2023-03-30T16:21:39;2.53;;;1.20;;
3257;SDS011;1641;51.306;12.384;2023-03-30T16:24:10;3.25;;;1.33;;
3257;SDS011;1641;51.306;12.384;2023-03-30T16:26:35;2.55;;;0.95;;
3257;SDS011;1641;51.306;12.384;2023-03-30T16:32:01;1.90;;;1.55;;
3257;SDS011;1641;51.306;12.384;2023-03-30T16:34:27;2.95;;;1.20;;
3257;SDS011;1641;51.306;12.384;2023-03-30T16:36:52;1.65;;;1.20;;
3257;SDS011;1641;51.306;12.384;2023-03-30T16:39:18;1.73;;;1.10;;
3257;SDS011;1641;51.306;12.384;2023-03-30T16:42:00;3.67;;;1.75;;
3257;SDS011;1641;51.306;12.384;2023-03-30T16:44:26;3.28;;;1.00;;
3257;SDS011;1641;51.306;12.384;2023-03-30T16:46:55;1.85;;;1.20;;
3257;SDS011;1641;51.306;12.384;2023-03-30T16:49:21;4.97;;;1.52;;
3257;SDS011;1641;51.306;12.384;2023-03-30T16:51:48;3.28;;;1.10;;
3257;SDS011;1641;51.306;12.384;2023-03-30T16:54:15;3.00;;;1.67;;
3257;SDS011;1641;51.306;12.384;2023-03-30T16:56:41;3.63;;;1.65;;
3257;SDS011;1641;51.306;12.384;2023-03-30T16:59:17;2.92;;;1.63;;
3257;SDS011;1641;51.306;12.384;2023-03-30T17:01:45;5.57;;;3.17;;
3257;SDS011;1641;51.306;12.384;2023-03-30T17:04:11;6.93;;;2.88;;
3257;SDS011;1641;51.306;12.384;2023-03-30T17:06:36;2.58;;;2.30;;
3257;SDS011;1641;51.306;12.384;2023-03-30T17:09:01;2.88;;;1.20;;
3257;SDS011;1641;51.306;12.384;2023-03-30T17:11:27;2.88;;;1.88;;
3257;SDS011;1641;51.306;12.384;2023-03-30T17:13:52;2.63;;;1.65;;
3257;SDS011;1641;51.306;12.384;2023-03-30T17:16:17;2.30;;;1.20;;
3257;SDS011;1641;51.306;12.384;2023-03-30T17:18:42;4.43;;;3.30;;
3257;SDS011;1641;51.306;12.384;2023-03-30T17:21:08;3.65;;;2.58;;
3257;SDS011;1641;51.306;12.384;2023-03-30T17:23:39;4.35;;;2.08;;
3257;SDS011;1641;51.306;12.384;2023-03-30T17:26:05;2.00;;;1.15;;
3257;SDS011;1641;51.306;12.384;2023-03-30T17:28:33;3.92;;;1.27;;
3257;SDS011;1641;51.306;12.384;2023-03-30T17:31:02;3.15;;;1.20;;
3257;SDS011;1641;51.306;12.384;2023-03-30T17:33:28;2.95;;;2.05;;
3257;SDS011;1641;51.306;12.384;2023-03-30T17:35:59;6.47;;;1.67;;
3257;SDS011;1641;51.306;12.384;2023-03-30T17:38:27;3.20;;;1.52;;
3257;SDS011;1641;51.306;12.384;2023-03-30T17:40:53;3.55;;;1.45;;